sensor_id;sensor_type;location;lat;lon;timestamp;pressure;altitude;pressure_sealevel;temperature;humidity
49315;BME280;36672;50.710;12.498;2023-02-13T00:01:11;100637.91;;;4.97;90.49
49315;BME280;36672;50.710;12.498;2023-02-13T00:03:37;100642.41;;;4.97;89.93
49315;BME280;36672;50.710;12.498;2023-02-13T00:06:02;100630.41;;;4.89;90.30
49315;BME280;36672;50.710;12.498;2023-02-13T00:08:27;100637.38;;;4.92;89.99
49315;BME280;36672;50.710;12.498;2023-02-13T00:10:53;100632.03;;;4.92;90.17
49315;BME280;36672;50.710;12.498;2023-02-13T00:13:18;100628.38;;;4.93;89.85
49315;BME280;36672;50.710;12.498;2023-02-13T00:15:44;100621.09;;;4.82;90.31
49315;BME280;36672;50.710;12.498;2023-02-13T00:18:09;100634.69;;;4.92;90.47
49315;BME280;36672;50.710;12.498;2023-02-13T00:20:34;100626.97;;;4.87;89.95
49315;BME280;36672;50.710;12.498;2023-02-13T00:23:00;100616.81;;;4.80;90.16
49315;BME280;36672;50.710;12.498;2023-02-13T00:25:25;100610.00;;;4.76;89.96
49315;BME280;36672;50.710;12.498;2023-02-13T00:27:51;100632.78;;;4.81;90.16
49315;BME280;36672;50.710;12.498;2023-02-13T00:30:18;100625.63;;;4.82;90.13
49315;BME280;36672;50.710;12.498;2023-02-13T00:32:44;100630.09;;;4.81;90.05
49315;BME280;36672;50.710;12.498;2023-02-13T00:35:09;100618.88;;;4.76;89.82
49315;BME280;36672;50.710;12.498;2023-02-13T00:37:35;100622.41;;;4.77;90.02
49315;BME280;36672;50.710;12.498;2023-02-13T00:40:01;100618.78;;;4.78;89.95
49315;BME280;36672;50.710;12.498;2023-02-13T00:42:27;100623.91;;;4.81;89.93
49315;BME280;36672;50.710;12.498;2023-02-13T00:44:53;100625.63;;;4.82;90.26
49315;BME280;36672;50.710;12.498;2023-02-13T00:47:19;100633.66;;;4.82;90.30
49315;BME280;36672;50.710;12.498;2023-02-13T00:49:45;100628.19;;;4.83;90.26
49315;BME280;36672;50.710;12.498;2023-02-13T00:52:10;100626.59;;;4.81;89.59
49315;BME280;36672;50.710;12.498;2023-02-13T00:54:36;100633.84;;;4.79;89.94
49315;BME280;36672;50.710;12.498;2023-02-13T00:57:01;100627.78;;;4.77;89.76
49315;BME280;36672;50.710;12.498;2023-02-13T00:59:26;100617.69;;;4.67;89.88
49315;BME280;36672;50.710;12.498;2023-02-13T01:01:52;100636.78;;;4.76;90.11
49315;BME280;36672;50.710;12.498;2023-02-13T01:04:17;100630.66;;;4.73;89.87
49315;BME280;36672;50.710;12.498;2023-02-13T01:06:42;100617.94;;;4.64;89.96
49315;BME280;36672;50.710;12.498;2023-02-13T01:09:08;100619.66;;;4.65;89.78
49315;BME280;36672;50.710;12.498;2023-02-13T01:11:33;100637.00;;;4.72;89.96
49315;BME280;36672;50.710;12.498;2023-02-13T01:13:58;100637.84;;;4.73;90.09
49315;BME280;36672;50.710;12.498;2023-02-13T01:16:24;100646.00;;;4.71;89.59
49315;BME280;36672;50.710;12.498;2023-02-13T01:18:49;100620.09;;;4.59;90.03
49315;BME280;36672;50.710;12.498;2023-02-13T01:21:17;100643.31;;;4.71;89.59
49315;BME280;36672;50.710;12.498;2023-02-13T01:23:43;100636.38;;;4.69;89.83
49315;BME280;36672;50.710;12.498;2023-02-13T01:26:12;100621.81;;;4.60;89.98
49315;BME280;36672;50.710;12.498;2023-02-13T01:28:40;100633.56;;;4.70;89.64
49315;BME280;36672;50.710;12.498;2023-02-13T01:31:05;100635.50;;;4.68;89.60
49315;BME280;36672;50.710;12.498;2023-02-13T01:33:31;100619.84;;;4.62;89.90
49315;BME280;36672;50.710;12.498;2023-02-13T01:35:56;100631.97;;;4.68;89.66
49315;BME280;36672;50.710;12.498;2023-02-13T01:38:22;100623.19;;;4.66;90.09
49315;BME280;36672;50.710;12.498;2023-02-13T01:40:52;100608.84;;;4.67;89.87
49315;BME280;36672;50.710;12.498;2023-02-13T01:43:19;100621.03;;;4.71;89.98
49315;BME280;36672;50.710;12.498;2023-02-13T01:45:48;100613.53;;;4.63;89.82
49315;BME280;36672;50.710;12.498;2023-02-13T01:48:18;100599.22;;;4.51;89.91
49315;BME280;36672;50.710;12.498;2023-02-13T01:51:07;100610.56;;;4.55;89.59
49315;BME280;36672;50.710;12.498;2023-02-13T01:53:45;100617.72;;;4.54;89.74
49315;BME280;36672;50.710;12.498;2023-02-13T01:56:37;100621.47;;;4.52;89.63
49315;BME280;36672;50.710;12.498;2023-02-13T01:59:07;100621.59;;;4.50;89.71
49315;BME280;36672;50.710;12.498;2023-02-13T02:01:34;100617.97;;;4.51;89.53
49315;BME280;36672;50.710;12.498;2023-02-13T02:04:07;100599.84;;;4.42;89.57
49315;BME280;36672;50.710;12.498;2023-02-13T02:06:43;100618.06;;;4.50;89.81
49315;BME280;36672;50.710;12.498;2023-02-13T02:09:13;100600.09;;;4.39;89.46
49315;BME280;36672;50.710;12.498;2023-02-13T02:14:25;100588.63;;;4.37;90.00
49315;BME280;36672;50.710;12.498;2023-02-13T02:16:50;100603.19;;;4.46;90.03
49315;BME280;36672;50.710;12.498;2023-02-13T02:28:12;100606.84;;;4.45;89.63
49315;BME280;36672;50.710;12.498;2023-02-13T02:36:07;100602.00;;;4.37;89.25
49315;BME280;36672;50.710;12.498;2023-02-13T02:38:41;100601.03;;;4.38;89.46
49315;BME280;36672;50.710;12.498;2023-02-13T02:49:52;100601.47;;;4.32;89.59
49315;BME280;36672;50.710;12.498;2023-02-13T02:58:01;100579.88;;;4.22;89.74
49315;BME280;36672;50.710;12.498;2023-02-13T03:00:49;100559.75;;;4.16;89.61
49315;BME280;36672;50.710;12.498;2023-02-13T03:03:33;100590.13;;;4.28;89.61
49315;BME280;36672;50.710;12.498;2023-02-13T03:06:23;100583.16;;;4.25;89.46
49315;BME280;36672;50.710;12.498;2023-02-13T03:08:53;100592.19;;;4.24;89.39
49315;BME280;36672;50.710;12.498;2023-02-13T03:11:41;100585.13;;;4.23;89.74
49315;BME280;36672;50.710;12.498;2023-02-13T03:14:27;100581.56;;;4.23;89.38
49315;BME280;36672;50.710;12.498;2023-02-13T03:16:53;100535.34;;;3.95;89.76
49315;BME280;36672;50.710;12.498;2023-02-13T03:25:17;100587.69;;;4.25;89.78
49315;BME280;36672;50.710;12.498;2023-02-13T03:28:32;100585.66;;;4.16;89.33
49315;BME280;36672;50.710;12.498;2023-02-13T03:31:30;100588.44;;;4.14;89.79
49315;BME280;36672;50.710;12.498;2023-02-13T03:34:03;100597.44;;;4.13;89.64
49315;BME280;36672;50.710;12.498;2023-02-13T03:42:41;100596.78;;;4.10;89.68
49315;BME280;36672;50.710;12.498;2023-02-13T03:45:31;100595.50;;;4.02;89.73
49315;BME280;36672;50.710;12.498;2023-02-13T03:48:18;100602.88;;;4.12;89.62
49315;BME280;36672;50.710;12.498;2023-02-13T03:51:04;100590.38;;;3.99;89.91
49315;BME280;36672;50.710;12.498;2023-02-13T03:53:34;100601.91;;;4.13;89.95
49315;BME280;36672;50.710;12.498;2023-02-13T03:56:03;100613.25;;;4.16;89.45
49315;BME280;36672;50.710;12.498;2023-02-13T03:58:51;100609.22;;;4.11;89.67
49315;BME280;36672;50.710;12.498;2023-02-13T04:01:37;100617.22;;;4.11;89.75
49315;BME280;36672;50.710;12.498;2023-02-13T04:04:20;100614.56;;;4.11;89.33
49315;BME280;36672;50.710;12.498;2023-02-13T04:06:56;100611.13;;;4.08;89.48
49315;BME280;36672;50.710;12.498;2023-02-13T04:09:25;100606.72;;;4.07;89.45
49315;BME280;36672;50.710;12.498;2023-02-13T04:14:27;100619.25;;;4.07;89.38
49315;BME280;36672;50.710;12.498;2023-02-13T04:17:03;100618.50;;;4.05;89.31
49315;BME280;36672;50.710;12.498;2023-02-13T04:19:31;100614.88;;;4.06;89.21
49315;BME280;36672;50.710;12.498;2023-02-13T04:21:58;100627.81;;;4.12;88.83
49315;BME280;36672;50.710;12.498;2023-02-13T04:24:25;100618.91;;;4.12;89.08
49315;BME280;36672;50.710;12.498;2023-02-13T04:26:50;100620.63;;;4.13;88.63
49315;BME280;36672;50.710;12.498;2023-02-13T04:29:16;100609.63;;;4.04;88.56
49315;BME280;36672;50.710;12.498;2023-02-13T04:31:42;100599.13;;;4.01;88.68
49315;BME280;36672;50.710;12.498;2023-02-13T04:34:07;100601.06;;;3.99;88.85
49315;BME280;36672;50.710;12.498;2023-02-13T04:36:32;100607.06;;;4.03;88.70
49315;BME280;36672;50.710;12.498;2023-02-13T04:38:58;100607.69;;;4.06;88.40
49315;BME280;36672;50.710;12.498;2023-02-13T04:41:23;100629.44;;;4.15;88.69
49315;BME280;36672;50.710;12.498;2023-02-13T04:43:48;100617.44;;;4.07;88.19
49315;BME280;36672;50.710;12.498;2023-02-13T04:46:16;100624.28;;;4.12;88.26
49315;BME280;36672;50.710;12.498;2023-02-13T04:48:42;100621.72;;;4.10;87.92
49315;BME280;36672;50.710;12.498;2023-02-13T04:51:07;100625.25;;;4.11;88.31
49315;BME280;36672;50.710;12.498;2023-02-13T04:53:32;100610.69;;;4.02;88.04
49315;BME280;36672;50.710;12.498;2023-02-13T04:55:57;100607.38;;;3.98;87.80
49315;BME280;36672;50.710;12.498;2023-02-13T04:58:23;100623.53;;;4.10;88.40
49315;BME280;36672;50.710;12.498;2023-02-13T05:00:48;100625.16;;;4.12;88.30
49315;BME280;36672;50.710;12.498;2023-02-13T05:03:13;100612.94;;;4.08;87.79
49315;BME280;36672;50.710;12.498;2023-02-13T05:05:39;100595.72;;;3.99;87.85
49315;BME280;36672;50.710;12.498;2023-02-13T05:08:05;100612.72;;;4.11;87.51
49315;BME280;36672;50.710;12.498;2023-02-13T05:10:31;100599.13;;;4.01;87.62
49315;BME280;36672;50.710;12.498;2023-02-13T05:12:57;100595.81;;;3.98;87.79
49315;BME280;36672;50.710;12.498;2023-02-13T05:15:23;100600.84;;;4.02;87.83
49315;BME280;36672;50.710;12.498;2023-02-13T05:17:49;100612.31;;;4.04;87.71
49315;BME280;36672;50.710;12.498;2023-02-13T05:20:15;100612.59;;;4.00;87.32
49315;BME280;36672;50.710;12.498;2023-02-13T05:22:44;100611.31;;;3.92;87.56
49315;BME280;36672;50.710;12.498;2023-02-13T05:25:29;100615.69;;;3.94;87.74
49315;BME280;36672;50.710;12.498;2023-02-13T05:27:55;100610.56;;;3.90;87.77
49315;BME280;36672;50.710;12.498;2023-02-13T05:30:20;100620.31;;;3.91;87.23
49315;BME280;36672;50.710;12.498;2023-02-13T05:32:46;100615.94;;;3.90;87.31
49315;BME280;36672;50.710;12.498;2023-02-13T05:35:11;100601.56;;;3.79;87.31
49315;BME280;36672;50.710;12.498;2023-02-13T05:37:36;100604.44;;;3.75;87.68
49315;BME280;36672;50.710;12.498;2023-02-13T05:40:02;100601.78;;;3.75;87.45
49315;BME280;36672;50.710;12.498;2023-02-13T05:42:28;100608.22;;;3.86;88.17
49315;BME280;36672;50.710;12.498;2023-02-13T05:44:53;100589.13;;;3.65;87.26
49315;BME280;36672;50.710;12.498;2023-02-13T05:47:18;100597.81;;;3.68;87.45
49315;BME280;36672;50.710;12.498;2023-02-13T05:49:44;100606.47;;;3.72;87.58
49315;BME280;36672;50.710;12.498;2023-02-13T05:52:09;100605.63;;;3.71;87.62
49315;BME280;36672;50.710;12.498;2023-02-13T05:54:34;100615.44;;;3.71;87.84
49315;BME280;36672;50.710;12.498;2023-02-13T05:57:02;100614.59;;;3.70;87.36
49315;BME280;36672;50.710;12.498;2023-02-13T05:59:28;100615.44;;;3.71;87.62
49315;BME280;36672;50.710;12.498;2023-02-13T06:01:53;100606.22;;;3.62;87.09
49315;BME280;36672;50.710;12.498;2023-02-13T06:04:18;100621.31;;;3.63;87.38
49315;BME280;36672;50.710;12.498;2023-02-13T06:06:44;100604.72;;;3.45;87.66
49315;BME280;36672;50.710;12.498;2023-02-13T06:09:09;100614.13;;;3.51;87.74
49315;BME280;36672;50.710;12.498;2023-02-13T06:11:35;100600.84;;;3.49;87.79
49315;BME280;36672;50.710;12.498;2023-02-13T06:14:00;100626.88;;;3.60;87.88
49315;BME280;36672;50.710;12.498;2023-02-13T06:16:25;100630.50;;;3.59;88.12
49315;BME280;36672;50.710;12.498;2023-02-13T06:18:51;100627.06;;;3.57;87.87
49315;BME280;36672;50.710;12.498;2023-02-13T06:21:16;100637.56;;;3.60;87.91
49315;BME280;36672;50.710;12.498;2023-02-13T06:23:42;100629.84;;;3.55;87.66
49315;BME280;36672;50.710;12.498;2023-02-13T06:26:08;100636.81;;;3.58;87.48
49315;BME280;36672;50.710;12.498;2023-02-13T06:28:33;100614.34;;;3.48;87.88
49315;BME280;36672;50.710;12.498;2023-02-13T06:30:59;100629.84;;;3.55;88.05
49315;BME280;36672;50.710;12.498;2023-02-13T06:33:25;100643.09;;;3.57;87.67
49315;BME280;36672;50.710;12.498;2023-02-13T06:35:50;100621.41;;;3.49;87.81
49315;BME280;36672;50.710;12.498;2023-02-13T06:38:16;100621.50;;;3.47;87.82
49315;BME280;36672;50.710;12.498;2023-02-13T06:40:46;100644.38;;;3.51;88.22
49315;BME280;36672;50.710;12.498;2023-02-13T06:43:12;100642.44;;;3.53;87.87
49315;BME280;36672;50.710;12.498;2023-02-13T06:45:37;100624.25;;;3.46;88.18
49315;BME280;36672;50.710;12.498;2023-02-13T06:48:03;100654.34;;;3.62;87.96
49315;BME280;36672;50.710;12.498;2023-02-13T06:50:28;100654.34;;;3.62;87.72
49315;BME280;36672;50.710;12.498;2023-02-13T06:52:53;100645.78;;;3.57;87.42
49315;BME280;36672;50.710;12.498;2023-02-13T06:55:19;100640.84;;;3.51;87.84
49315;BME280;36672;50.710;12.498;2023-02-13T06:57:45;100657.91;;;3.63;87.45
49315;BME280;36672;50.710;12.498;2023-02-13T07:00:11;100639.03;;;3.51;87.68
49315;BME280;36672;50.710;12.498;2023-02-13T07:02:41;100634.75;;;3.49;87.66
49315;BME280;36672;50.710;12.498;2023-02-13T07:05:07;100661.41;;;3.63;87.81
49315;BME280;36672;50.710;12.498;2023-02-13T07:07:34;100669.31;;;3.65;87.81
49315;BME280;36672;50.710;12.498;2023-02-13T07:10:00;100667.53;;;3.65;87.63
49315;BME280;36672;50.710;12.498;2023-02-13T07:12:25;100662.78;;;3.56;87.34
49315;BME280;36672;50.710;12.498;2023-02-13T07:14:50;100671.66;;;3.56;87.42
49315;BME280;36672;50.710;12.498;2023-02-13T07:17:16;100679.47;;;3.59;87.26
49315;BME280;36672;50.710;12.498;2023-02-13T07:19:41;100650.97;;;3.46;86.90
49315;BME280;36672;50.710;12.498;2023-02-13T07:22:06;100664.50;;;3.57;87.20
49315;BME280;36672;50.710;12.498;2023-02-13T07:24:32;100670.06;;;3.54;86.91
49315;BME280;36672;50.710;12.498;2023-02-13T07:26:59;100660.06;;;3.43;86.68
49315;BME280;36672;50.710;12.498;2023-02-13T07:29:25;100672.34;;;3.46;87.00
49315;BME280;36672;50.710;12.498;2023-02-13T07:31:50;100676.66;;;3.48;86.73
49315;BME280;36672;50.710;12.498;2023-02-13T07:34:16;100679.88;;;3.53;87.33
49315;BME280;36672;50.710;12.498;2023-02-13T07:36:41;100665.09;;;3.48;87.07
49315;BME280;36672;50.710;12.498;2023-02-13T07:39:06;100648.72;;;3.39;86.73
49315;BME280;36672;50.710;12.498;2023-02-13T07:41:32;100676.25;;;3.54;87.15
49315;BME280;36672;50.710;12.498;2023-02-13T07:43:57;100664.06;;;3.50;86.68
49315;BME280;36672;50.710;12.498;2023-02-13T07:46:22;100648.22;;;3.47;86.66
49315;BME280;36672;50.710;12.498;2023-02-13T07:48:50;100669.03;;;3.69;86.43
49315;BME280;36672;50.710;12.498;2023-02-13T07:51:16;100663.94;;;3.79;86.04
49315;BME280;36672;50.710;12.498;2023-02-13T07:53:41;100659.97;;;3.85;86.21
49315;BME280;36672;50.710;12.498;2023-02-13T07:56:07;100660.50;;;3.90;85.98
49315;BME280;36672;50.710;12.498;2023-02-13T07:58:33;100653.69;;;3.99;85.78
49315;BME280;36672;50.710;12.498;2023-02-13T08:01:04;100654.69;;;4.11;85.42
49315;BME280;36672;50.710;12.498;2023-02-13T08:03:30;100636.69;;;4.13;85.44
49315;BME280;36672;50.710;12.498;2023-02-13T08:05:55;100639.81;;;4.19;84.83
49315;BME280;36672;50.710;12.498;2023-02-13T08:08:21;100653.94;;;4.34;84.50
49315;BME280;36672;50.710;12.498;2023-02-13T08:10:46;100651.78;;;4.39;84.58
49315;BME280;36672;50.710;12.498;2023-02-13T08:13:31;100657.78;;;4.43;84.15
49315;BME280;36672;50.710;12.498;2023-02-13T08:15:56;100651.69;;;4.54;84.16
49315;BME280;36672;50.710;12.498;2023-02-13T08:18:21;100642.16;;;4.50;83.31
49315;BME280;36672;50.710;12.498;2023-02-13T08:20:47;100640.75;;;4.57;83.42
49315;BME280;36672;50.710;12.498;2023-02-13T08:23:12;100642.34;;;4.60;82.78
49315;BME280;36672;50.710;12.498;2023-02-13T08:25:38;100662.50;;;4.65;82.79
49315;BME280;36672;50.710;12.498;2023-02-13T08:28:04;100660.88;;;4.76;82.97
49315;BME280;36672;50.710;12.498;2023-02-13T08:30:29;100657.44;;;4.73;82.77
49315;BME280;36672;50.710;12.498;2023-02-13T08:32:55;100661.63;;;4.78;82.38
49315;BME280;36672;50.710;12.498;2023-02-13T08:35:21;100644.03;;;4.73;82.19
49315;BME280;36672;50.710;12.498;2023-02-13T08:37:50;100663.66;;;4.87;82.11
49315;BME280;36672;50.710;12.498;2023-02-13T08:40:16;100657.31;;;4.88;81.56
49315;BME280;36672;50.710;12.498;2023-02-13T08:42:41;100651.97;;;4.88;81.70
49315;BME280;36672;50.710;12.498;2023-02-13T08:45:08;100678.91;;;5.11;81.44
49315;BME280;36672;50.710;12.498;2023-02-13T08:47:36;100677.72;;;5.15;81.08
49315;BME280;36672;50.710;12.498;2023-02-13T08:50:02;100676.41;;;5.20;81.20
49315;BME280;36672;50.710;12.498;2023-02-13T08:52:27;100675.13;;;5.26;80.47
49315;BME280;36672;50.710;12.498;2023-02-13T08:54:53;100667.41;;;5.21;80.45
49315;BME280;36672;50.710;12.498;2023-02-13T08:57:19;100684.53;;;5.32;80.79
49315;BME280;36672;50.710;12.498;2023-02-13T08:59:44;100680.31;;;5.41;80.59
49315;BME280;36672;50.710;12.498;2023-02-13T09:02:10;100683.75;;;5.43;80.43
49315;BME280;36672;50.710;12.498;2023-02-13T09:04:36;100681.50;;;5.36;79.57
49315;BME280;36672;50.710;12.498;2023-02-13T09:07:02;100682.47;;;5.35;79.67
49315;BME280;36672;50.710;12.498;2023-02-13T09:09:27;100681.41;;;5.38;80.04
49315;BME280;36672;50.710;12.498;2023-02-13T09:11:52;100686.75;;;5.38;79.48
49315;BME280;36672;50.710;12.498;2023-02-13T09:14:22;100678.59;;;5.39;79.57
49315;BME280;36672;50.710;12.498;2023-02-13T09:16:47;100679.69;;;5.37;79.46
49315;BME280;36672;50.710;12.498;2023-02-13T09:19:12;100666.63;;;5.32;79.59
49315;BME280;36672;50.710;12.498;2023-02-13T09:21:38;100679.97;;;5.45;79.33
49315;BME280;36672;50.710;12.498;2023-02-13T09:24:06;100673.03;;;5.43;79.12
49315;BME280;36672;50.710;12.498;2023-02-13T09:26:32;100661.28;;;5.32;78.94
49315;BME280;36672;50.710;12.498;2023-02-13T09:28:57;100674.50;;;5.47;79.17
49315;BME280;36672;50.710;12.498;2023-02-13T09:31:22;100673.13;;;5.41;78.71
49315;BME280;36672;50.710;12.498;2023-02-13T09:33:48;100653.16;;;5.21;78.51
49315;BME280;36672;50.710;12.498;2023-02-13T09:36:19;100675.63;;;5.31;78.87
49315;BME280;36672;50.710;12.498;2023-02-13T09:38:47;100670.72;;;5.25;78.61
49315;BME280;36672;50.710;12.498;2023-02-13T09:41:17;100669.44;;;5.18;78.69
49315;BME280;36672;50.710;12.498;2023-02-13T09:46:20;100680.56;;;5.37;78.64
49315;BME280;36672;50.710;12.498;2023-02-13T09:48:50;100681.34;;;5.51;78.39
49315;BME280;36672;50.710;12.498;2023-02-13T09:51:19;100685.06;;;5.61;78.26
49315;BME280;36672;50.710;12.498;2023-02-13T09:53:58;100659.50;;;5.44;77.43
49315;BME280;36672;50.710;12.498;2023-02-13T09:59:31;100687.00;;;5.83;76.84
49315;BME280;36672;50.710;12.498;2023-02-13T10:02:02;100689.91;;;6.04;77.10
49315;BME280;36672;50.710;12.498;2023-02-13T10:04:47;100701.16;;;6.10;76.03
49315;BME280;36672;50.710;12.498;2023-02-13T10:10:19;100683.94;;;6.12;76.02
49315;BME280;36672;50.710;12.498;2023-02-13T10:15:53;100695.63;;;7.38;73.40
49315;BME280;36672;50.710;12.498;2023-02-13T10:18:25;100688.69;;;8.42;72.33
49315;BME280;36672;50.710;12.498;2023-02-13T10:20:59;100685.59;;;10.28;68.67
49315;BME280;36672;50.710;12.498;2023-02-13T10:23:34;100675.19;;;12.63;64.70
49315;BME280;36672;50.710;12.498;2023-02-13T10:26:07;100672.56;;;14.80;58.57
49315;BME280;36672;50.710;12.498;2023-02-13T10:28:50;100661.06;;;15.96;55.36
49315;BME280;36672;50.710;12.498;2023-02-13T10:31:38;100668.38;;;16.42;51.99
49315;BME280;36672;50.710;12.498;2023-02-13T10:34:04;100674.56;;;16.12;50.90
49315;BME280;36672;50.710;12.498;2023-02-13T10:36:39;100670.72;;;15.52;50.57
49315;BME280;36672;50.710;12.498;2023-02-13T11:03:14;100626.78;;;14.11;50.32
49315;BME280;36672;50.710;12.498;2023-02-13T11:05:42;100619.78;;;14.25;50.99
49315;BME280;36672;50.710;12.498;2023-02-13T11:08:23;100624.69;;;14.30;48.58
49315;BME280;36672;50.710;12.498;2023-02-13T11:10:50;100623.28;;;14.67;48.93
49315;BME280;36672;50.710;12.498;2023-02-13T11:13:21;100614.78;;;14.70;47.99
49315;BME280;36672;50.710;12.498;2023-02-13T11:16:08;100617.78;;;14.83;47.65
49315;BME280;36672;50.710;12.498;2023-02-13T11:18:40;100604.50;;;14.89;47.49
49315;BME280;36672;50.710;12.498;2023-02-13T11:21:15;100607.47;;;14.71;48.04
49315;BME280;36672;50.710;12.498;2023-02-13T11:23:44;100585.94;;;14.36;48.91
49315;BME280;36672;50.710;12.498;2023-02-13T11:26:11;100608.56;;;14.28;49.83
49315;BME280;36672;50.710;12.498;2023-02-13T11:29:00;100599.25;;;13.98;48.86
49315;BME280;36672;50.710;12.498;2023-02-13T11:31:33;100602.31;;;14.11;49.96
49315;BME280;36672;50.710;12.498;2023-02-13T11:34:24;100590.03;;;13.41;48.59
49315;BME280;36672;50.710;12.498;2023-02-13T11:37:08;100603.97;;;12.87;51.16
49315;BME280;36672;50.710;12.498;2023-02-13T11:39:39;100592.47;;;13.01;52.15
49315;BME280;36672;50.710;12.498;2023-02-13T11:44:55;100591.94;;;14.15;49.83
49315;BME280;36672;50.710;12.498;2023-02-13T11:47:35;100580.44;;;14.61;48.22
49315;BME280;36672;50.710;12.498;2023-02-13T11:50:02;100579.22;;;14.63;49.38
49315;BME280;36672;50.710;12.498;2023-02-13T11:52:31;100563.63;;;14.49;49.62
49315;BME280;36672;50.710;12.498;2023-02-13T11:55:32;100563.59;;;14.57;49.41
49315;BME280;36672;50.710;12.498;2023-02-13T11:58:02;100580.84;;;14.25;49.52
49315;BME280;36672;50.710;12.498;2023-02-13T12:02:56;100564.22;;;14.19;50.40
49315;BME280;36672;50.710;12.498;2023-02-13T12:05:24;100559.28;;;14.79;49.17
49315;BME280;36672;50.710;12.498;2023-02-13T12:07:51;100577.22;;;15.52;48.66
49315;BME280;36672;50.710;12.498;2023-02-13T12:10:23;100568.56;;;15.94;46.97
49315;BME280;36672;50.710;12.498;2023-02-13T12:15:27;100568.16;;;16.21;45.44
49315;BME280;36672;50.710;12.498;2023-02-13T12:18:11;100564.44;;;15.75;44.86
49315;BME280;36672;50.710;12.498;2023-02-13T12:26:37;100563.69;;;16.05;45.44
49315;BME280;36672;50.710;12.498;2023-02-13T12:35:02;100562.13;;;16.70;43.43
49315;BME280;36672;50.710;12.498;2023-02-13T12:40:18;100569.19;;;17.31;43.66
49315;BME280;36672;50.710;12.498;2023-02-13T12:48:42;100553.72;;;18.10;40.17
49315;BME280;36672;50.710;12.498;2023-02-13T12:53:56;100558.56;;;18.08;41.59
49315;BME280;36672;50.710;12.498;2023-02-13T12:59:15;100546.38;;;18.11;40.85
49315;BME280;36672;50.710;12.498;2023-02-13T13:01:53;100547.03;;;17.91;40.35
49315;BME280;36672;50.710;12.498;2023-02-13T13:04:36;100546.13;;;18.05;40.62
49315;BME280;36672;50.710;12.498;2023-02-13T13:07:24;100550.03;;;17.96;40.07
49315;BME280;36672;50.710;12.498;2023-02-13T13:10:02;100548.09;;;17.47;40.70
49315;BME280;36672;50.710;12.498;2023-02-13T13:15:39;100552.00;;;16.34;42.52
49315;BME280;36672;50.710;12.498;2023-02-13T13:18:31;100551.19;;;15.49;43.99
49315;BME280;36672;50.710;12.498;2023-02-13T13:21:27;100544.13;;;14.45;46.16
49315;BME280;36672;50.710;12.498;2023-02-13T13:27:13;100543.84;;;13.16;48.61
49315;BME280;36672;50.710;12.498;2023-02-13T13:32:28;100531.28;;;12.56;49.80
49315;BME280;36672;50.710;12.498;2023-02-13T13:34:55;100545.22;;;12.35;50.62
49315;BME280;36672;50.710;12.498;2023-02-13T13:37:29;100548.13;;;12.07;51.45
49315;BME280;36672;50.710;12.498;2023-02-13T13:45:13;100537.72;;;11.14;54.05
49315;BME280;36672;50.710;12.498;2023-02-13T13:50:30;100550.66;;;10.92;54.80
49315;BME280;36672;50.710;12.498;2023-02-13T14:03:51;100556.22;;;10.25;57.13
49315;BME280;36672;50.710;12.498;2023-02-13T14:06:26;100549.72;;;10.08;57.81
49315;BME280;36672;50.710;12.498;2023-02-13T14:13:57;100537.59;;;9.65;59.55
49315;BME280;36672;50.710;12.498;2023-02-13T14:19:31;100541.00;;;9.37;60.92
49315;BME280;36672;50.710;12.498;2023-02-13T14:24:58;100533.94;;;9.36;61.13
49315;BME280;36672;50.710;12.498;2023-02-13T14:27:37;100522.13;;;9.18;61.93
49315;BME280;36672;50.710;12.498;2023-02-13T14:30:29;100536.59;;;9.17;62.46
49315;BME280;36672;50.710;12.498;2023-02-13T14:32:56;100515.31;;;9.04;61.71
49315;BME280;36672;50.710;12.498;2023-02-13T14:35:29;100499.13;;;8.94;62.08
49315;BME280;36672;50.710;12.498;2023-02-13T14:37:58;100533.34;;;9.03;61.97
49315;BME280;36672;50.710;12.498;2023-02-13T14:45:30;100530.31;;;8.77;63.26
49315;BME280;36672;50.710;12.498;2023-02-13T14:47:57;100525.47;;;8.71;63.69
49315;BME280;36672;50.710;12.498;2023-02-13T14:50:43;100530.56;;;8.64;64.41
49315;BME280;36672;50.710;12.498;2023-02-13T14:53:20;100532.06;;;8.47;65.33
49315;BME280;36672;50.710;12.498;2023-02-13T14:55:54;100530.41;;;8.35;64.71
49315;BME280;36672;50.710;12.498;2023-02-13T14:58:29;100529.66;;;8.23;65.88
49315;BME280;36672;50.710;12.498;2023-02-13T15:01:01;100527.13;;;8.21;65.47
49315;BME280;36672;50.710;12.498;2023-02-13T15:03:29;100521.88;;;8.20;65.77
49315;BME280;36672;50.710;12.498;2023-02-13T15:05:58;100516.69;;;8.07;66.20
49315;BME280;36672;50.710;12.498;2023-02-13T15:08:30;100516.38;;;8.00;66.58
49315;BME280;36672;50.710;12.498;2023-02-13T15:10:56;100513.09;;;7.96;66.89
49315;BME280;36672;50.710;12.498;2023-02-13T15:13:33;100520.41;;;7.84;67.26
49315;BME280;36672;50.710;12.498;2023-02-13T15:16:05;100526.03;;;7.81;67.50
49315;BME280;36672;50.710;12.498;2023-02-13T15:18:39;100513.66;;;7.69;67.68
49315;BME280;36672;50.710;12.498;2023-02-13T15:21:12;100508.75;;;7.53;67.95
49315;BME280;36672;50.710;12.498;2023-02-13T15:23:40;100526.78;;;7.62;67.90
49315;BME280;36672;50.710;12.498;2023-02-13T15:26:06;100523.63;;;7.57;68.62
49315;BME280;36672;50.710;12.498;2023-02-13T15:28:34;100514.13;;;7.53;68.50
49315;BME280;36672;50.710;12.498;2023-02-13T15:31:01;100509.72;;;7.52;68.72
49315;BME280;36672;50.710;12.498;2023-02-13T15:33:41;100490.13;;;7.40;68.43
49315;BME280;36672;50.710;12.498;2023-02-13T15:36:16;100513.00;;;7.56;69.14
49315;BME280;36672;50.710;12.498;2023-02-13T15:38:42;100509.47;;;7.55;68.58
49315;BME280;36672;50.710;12.498;2023-02-13T15:41:19;100512.41;;;7.52;69.30